Time;durP1;ratioP1;P1;durP2;ratioP2;P2;SDS_P1;SDS_P2;PMS_P1;PMS_P2;Temp;Humidity;BMP_temperature;BMP_pressure;BME280_temperature;BME280_humidity;BME280_pressure;Samples;Min_cycle;Max_cycle;Signal;HPM_P1;HPM_P2
2021/05/28 00:01:29;;;;;;;;;;;18.70;94.30;;;;;;5074235;28;20370;-77
2021/05/28 00:03:55;;;;;;;;;;;18.80;94.50;;;;;;5076138;28;20365;-76
2021/05/28 00:06:21;;;;;;;;;;;18.80;94.00;;;;;;5074986;28;19904;-77
2021/05/28 00:08:46;;;;;;;;;;;18.80;93.50;;;;;;5075252;28;19927;-78
2021/05/28 00:11:12;;;;;;;;;;;18.70;93.50;;;;;;5076062;28;19999;-76
2021/05/28 00:13:38;;;;;;;;;;;18.60;93.10;;;;;;5075521;28;19905;-78
2021/05/28 00:16:04;;;;;;;;;;;18.40;93.60;;;;;;5076305;28;19904;-78
2021/05/28 00:18:29;;;;;;;;;;;18.30;93.30;;;;;;5073278;28;19912;-76
2021/05/28 00:20:55;;;;;;;;;;;18.20;93.50;;;;;;5075810;28;20003;-78
2021/05/28 00:23:21;;;;;;;;;;;18.30;93.40;;;;;;5074716;28;19905;-77
2021/05/28 00:25:47;;;;;;;;;;;18.30;93.60;;;;;;5075738;28;19950;-77
2021/05/28 00:28:12;;;;;;;;;;;18.30;93.40;;;;;;5077445;28;20270;-77
2021/05/28 00:30:38;;;;;;;;;;;18.30;93.60;;;;;;5076460;28;20338;-76
2021/05/28 00:33:04;;;;;;;;;;;18.20;93.70;;;;;;5057272;28;19908;-77
2021/05/28 00:35:30;;;;;;;;;;;18.00;94.10;;;;;;5073621;28;20258;-77
2021/05/28 00:37:56;;;;;;;;;;;18.00;94.40;;;;;;5058852;28;19955;-76
2021/05/28 00:40:22;;;;;;;;;;;17.90;94.50;;;;;;5078504;28;19950;-77
2021/05/28 00:42:48;;;;;;;;;;;17.80;95.00;;;;;;5079406;28;20041;-78
2021/05/28 00:45:14;;;;;;;;;;;17.70;95.20;;;;;;5078422;28;19940;-76
2021/05/28 00:47:40;;;;;;;;;;;17.70;95.40;;;;;;5077951;28;19927;-77
2021/05/28 00:50:06;;;;;;;;;;;17.80;95.30;;;;;;5073869;28;19917;-78
2021/05/28 00:52:33;;;;;;;;;;;17.70;95.30;;;;;;5059106;28;19909;-77
2021/05/28 00:54:59;;;;;;;;;;;17.80;95.60;;;;;;5059127;28;20266;-78
2021/05/28 00:57:28;;;;;;;;;;;17.80;95.60;;;;;;5058619;28;20392;-76
2021/05/28 00:59:57;;;;;;;;;;;17.70;95.70;;;;;;5057953;28;19912;-77
2021/05/28 01:02:23;;;;;;;;;;;17.60;95.80;;;;;;5058468;28;19911;-78
2021/05/28 01:04:49;;;;;;;;;;;17.70;95.50;;;;;;5058907;28;19995;-77
2021/05/28 01:07:14;;;;;;;;;;;17.90;95.20;;;;;;5060292;28;19967;-75
2021/05/28 01:09:40;;;;;;;;;;;17.80;95.10;;;;;;5060577;28;20371;-79
2021/05/28 01:12:06;;;;;;;;;;;17.70;95.00;;;;;;5075004;28;19904;-76
2021/05/28 01:14:32;;;;;;;;;;;17.80;95.00;;;;;;5060210;28;19904;-77
2021/05/28 01:16:58;;;;;;;;;;;17.70;94.90;;;;;;5060328;28;19955;-76
2021/05/28 01:19:25;;;;;;;;;;;17.70;95.10;;;;;;5059235;28;19913;-78
2021/05/28 01:21:51;;;;;;;;;;;17.50;94.60;;;;;;5058063;28;20343;-78
2021/05/28 01:24:17;;;;;;;;;;;17.50;94.60;;;;;;5057546;28;19905;-76
2021/05/28 01:26:43;;;;;;;;;;;17.50;94.20;;;;;;5057931;28;19915;-79
2021/05/28 01:29:09;;;;;;;;;;;17.30;94.10;;;;;;5072993;28;20243;-75
2021/05/28 01:31:35;;;;;;;;;;;17.40;94.30;;;;;;5058093;28;19911;-77
2021/05/28 01:34:02;;;;;;;;;;;17.30;94.00;;;;;;5058828;28;19931;-76
2021/05/28 01:36:27;;;;;;;;;;;17.30;94.10;;;;;;5052081;28;19949;-75
2021/05/28 01:38:53;;;;;;;;;;;17.20;93.70;;;;;;5056247;28;19923;-75
2021/05/28 01:41:19;;;;;;;;;;;17.30;93.80;;;;;;5075089;28;19920;-76
2021/05/28 01:43:45;;;;;;;;;;;17.00;93.90;;;;;;5058179;28;19904;-76
2021/05/28 01:46:10;;;;;;;;;;;16.90;94.10;;;;;;5056228;28;19905;-75
2021/05/28 01:48:38;;;;;;;;;;;16.90;93.90;;;;;;5055754;28;19927;-78
2021/05/28 01:51:05;;;;;;;;;;;17.00;94.40;;;;;;5069588;28;20320;-76
2021/05/28 01:53:31;;;;;;;;;;;16.90;94.20;;;;;;5076254;28;19999;-77
2021/05/28 01:55:57;;;;;;;;;;;16.90;94.50;;;;;;5058271;28;20366;-77
2021/05/28 01:58:24;;;;;;;;;;;16.90;94.50;;;;;;5075964;28;19912;-77
2021/05/28 02:00:52;;;;;;;;;;;17.10;94.70;;;;;;5077403;28;19943;-75
2021/05/28 02:03:21;;;;;;;;;;;16.90;95.00;;;;;;5076777;28;19910;-77
2021/05/28 02:05:47;;;;;;;;;;;16.90;94.80;;;;;;5077241;28;19999;-76
2021/05/28 02:08:13;;;;;;;;;;;16.90;95.00;;;;;;5077047;28;19959;-78
2021/05/28 02:10:39;;;;;;;;;;;16.70;95.20;;;;;;5076699;28;19904;-76
2021/05/28 02:13:05;;;;;;;;;;;16.50;95.50;;;;;;5076313;28;19954;-76
2021/05/28 02:15:38;;;;;;;;;;;16.10;95.90;;;;;;5077332;28;19912;-77
2021/05/28 02:18:07;;;;;;;;;;;16.20;95.90;;;;;;5059226;28;19908;-76
2021/05/28 02:20:33;;;;;;;;;;;16.10;95.70;;;;;;5076806;28;19995;-76
2021/05/28 02:23:01;;;;;;;;;;;15.70;95.90;;;;;;5075778;28;19904;-76
2021/05/28 02:25:27;;;;;;;;;;;15.80;96.00;;;;;;5076219;28;19904;-76
2021/05/28 02:27:56;;;;;;;;;;;15.80;96.00;;;;;;5075647;28;19908;-77
2021/05/28 02:30:22;;;;;;;;;;;15.80;95.90;;;;;;5058513;28;19938;-76
2021/05/28 02:32:47;;;;;;;;;;;15.70;95.90;;;;;;5060314;28;20364;-76
2021/05/28 02:35:13;;;;;;;;;;;15.40;96.30;;;;;;5075179;28;19916;-76
2021/05/28 02:37:39;;;;;;;;;;;15.50;96.20;;;;;;5078176;28;19912;-76
2021/05/28 02:40:06;;;;;;;;;;;15.50;96.40;;;;;;5076114;28;19912;-78
2021/05/28 02:42:33;;;;;;;;;;;15.60;95.90;;;;;;5077769;28;19905;-76
2021/05/28 02:44:59;;;;;;;;;;;15.50;95.90;;;;;;5076774;28;19904;-79
2021/05/28 02:47:26;;;;;;;;;;;15.50;96.00;;;;;;5076101;28;19911;-76
2021/05/28 02:49:52;;;;;;;;;;;15.40;95.90;;;;;;5077109;28;20293;-77
2021/05/28 02:52:18;;;;;;;;;;;15.50;95.90;;;;;;5077093;28;19911;-75
2021/05/28 02:54:44;;;;;;;;;;;15.50;95.70;;;;;;5060554;28;19944;-77
2021/05/28 02:57:09;;;;;;;;;;;15.40;95.90;;;;;;5076941;28;19905;-79
2021/05/28 02:59:35;;;;;;;;;;;15.40;95.80;;;;;;5074926;28;20003;-73
2021/05/28 03:02:02;;;;;;;;;;;15.50;95.70;;;;;;5077117;28;20366;-79
2021/05/28 03:04:28;;;;;;;;;;;15.50;95.90;;;;;;5077701;28;19908;-77
2021/05/28 03:06:53;;;;;;;;;;;15.30;96.00;;;;;;5057727;28;19934;-76
2021/05/28 03:09:19;;;;;;;;;;;15.40;96.00;;;;;;5076739;28;19947;-76
2021/05/28 03:11:45;;;;;;;;;;;15.20;96.00;;;;;;5076837;28;19904;-78
2021/05/28 03:14:11;;;;;;;;;;;15.30;96.10;;;;;;5074458;28;19905;-80
2021/05/28 03:16:37;;;;;;;;;;;15.20;96.30;;;;;;5078078;28;19905;-78
2021/05/28 03:19:06;;;;;;;;;;;15.40;96.10;;;;;;5075298;28;19948;-77
2021/05/28 03:23:58;;;;;;;;;;;15.20;96.50;;;;;;5076336;28;19930;-75
2021/05/28 03:26:25;;;;;;;;;;;15.20;96.50;;;;;;5075493;28;20285;-75
2021/05/28 03:28:52;;;;;;;;;;;15.20;96.50;;;;;;5075443;28;19904;-75
2021/05/28 03:31:18;;;;;;;;;;;15.40;96.50;;;;;;5058088;28;19904;-78
2021/05/28 03:33:43;;;;;;;;;;;15.20;96.50;;;;;;5058648;28;19958;-75
2021/05/28 03:36:10;;;;;;;;;;;15.20;96.40;;;;;;5078152;28;19904;-79
2021/05/28 03:38:36;;;;;;;;;;;15.30;96.30;;;;;;5076214;28;20319;-75
2021/05/28 03:41:02;;;;;;;;;;;15.50;96.40;;;;;;5076012;28;19908;-78
2021/05/28 03:43:28;;;;;;;;;;;15.30;96.20;;;;;;5075970;28;19927;-77
2021/05/28 03:45:54;;;;;;;;;;;15.20;96.30;;;;;;5075487;28;19904;-76
2021/05/28 03:48:20;;;;;;;;;;;15.40;96.50;;;;;;5075619;28;20368;-76
2021/05/28 03:50:45;;;;;;;;;;;15.50;97.80;;;;;;5075089;28;19917;-76
2021/05/28 03:53:11;;;;;;;;;;;15.30;99.90;;;;;;5077161;28;19908;-76
2021/05/28 03:55:37;;;;;;;;;;;15.20;96.60;;;;;;5077391;28;20365;-76
2021/05/28 03:58:03;;;;;;;;;;;15.20;96.90;;;;;;5074492;28;20023;-77
2021/05/28 04:00:28;;;;;;;;;;;15.10;97.60;;;;;;5073749;28;19962;-75
2021/05/28 04:02:54;;;;;;;;;;;15.20;97.90;;;;;;5074220;28;20282;-76
2021/05/28 04:05:20;;;;;;;;;;;14.90;98.90;;;;;;5074988;28;20004;-74
2021/05/28 04:07:46;;;;;;;;;;;14.80;99.70;;;;;;5073140;28;19908;-77
2021/05/28 04:10:12;;;;;;;;;;;14.70;99.90;;;;;;5056208;28;19908;-76
2021/05/28 04:12:38;;;;;;;;;;;14.60;99.90;;;;;;5073888;28;20014;-78
2021/05/28 04:15:04;;;;;;;;;;;;;;;;;;5076513;28;19944;-76
2021/05/28 04:17:30;;;;;;;;;;;14.60;99.90;;;;;;5076369;28;19905;-75
2021/05/28 04:19:55;;;;;;;;;;;14.60;99.90;;;;;;5079042;28;19919;-74
2021/05/28 04:22:21;;;;;;;;;;;14.50;99.90;;;;;;5078025;28;20366;-77
2021/05/28 04:24:47;;;;;;;;;;;14.50;99.90;;;;;;5060129;28;19905;-76
2021/05/28 04:27:13;;;;;;;;;;;14.40;99.90;;;;;;5077939;28;20354;-76
2021/05/28 04:29:38;;;;;;;;;;;14.30;99.90;;;;;;5077640;28;19911;-78
2021/05/28 04:32:04;;;;;;;;;;;14.50;99.90;;;;;;5078119;28;19909;-76
2021/05/28 04:34:30;;;;;;;;;;;14.60;99.90;;;;;;5078571;28;19912;-73
2021/05/28 04:36:56;;;;;;;;;;;14.50;99.90;;;;;;5077680;28;19904;-76
2021/05/28 04:39:21;;;;;;;;;;;14.60;99.90;;;;;;5076338;28;19913;-74
2021/05/28 04:41:47;;;;;;;;;;;14.70;99.90;;;;;;5077051;28;19904;-76
2021/05/28 04:44:14;;;;;;;;;;;14.70;99.90;;;;;;5077296;28;19931;-75
2021/05/28 04:46:39;;;;;;;;;;;14.70;99.90;;;;;;5058912;28;19974;-74
2021/05/28 04:49:05;;;;;;;;;;;14.50;99.90;;;;;;5077017;28;19905;-77
2021/05/28 04:51:31;;;;;;;;;;;14.40;99.90;;;;;;5076732;28;19951;-76
2021/05/28 04:53:57;;;;;;;;;;;14.40;99.90;;;;;;5076944;28;19905;-76
2021/05/28 04:56:23;;;;;;;;;;;14.40;99.90;;;;;;5077138;28;19909;-76
2021/05/28 04:58:48;;;;;;;;;;;14.20;99.90;;;;;;5076694;28;20439;-76
2021/05/28 05:01:14;;;;;;;;;;;14.00;99.90;;;;;;5076849;28;19946;-74
2021/05/28 05:03:40;;;;;;;;;;;14.00;99.90;;;;;;5076410;28;19911;-76
2021/05/28 05:06:06;;;;;;;;;;;13.80;99.90;;;;;;5076482;28;19911;-75
2021/05/28 05:08:31;;;;;;;;;;;14.00;99.90;;;;;;5076654;28;19904;-78
2021/05/28 05:10:58;;;;;;;;;;;14.10;99.90;;;;;;5076324;28;19909;-77
2021/05/28 05:13:23;;;;;;;;;;;14.00;99.90;;;;;;5076794;28;19904;-76
2021/05/28 05:15:49;;;;;;;;;;;13.90;99.90;;;;;;5076423;28;19922;-76
2021/05/28 05:18:15;;;;;;;;;;;13.90;99.90;;;;;;5058164;28;19908;-76
2021/05/28 05:20:41;;;;;;;;;;;14.10;99.90;;;;;;5075229;28;20294;-76
2021/05/28 05:23:06;;;;;;;;;;;14.00;99.90;;;;;;5058710;28;20369;-78
2021/05/28 05:25:32;;;;;;;;;;;14.20;99.90;;;;;;5075947;28;19904;-75
2021/05/28 05:27:58;;;;;;;;;;;;;;;;;;5076405;28;19908;-79
2021/05/28 05:30:24;;;;;;;;;;;14.30;99.90;;;;;;5076092;28;20421;-77
2021/05/28 05:32:50;;;;;;;;;;;14.50;99.90;;;;;;5058395;28;19987;-76
2021/05/28 05:35:16;;;;;;;;;;;14.40;99.90;;;;;;5075859;28;19911;-77
2021/05/28 05:37:42;;;;;;;;;;;14.50;99.90;;;;;;5057585;28;20351;-77
2021/05/28 05:40:08;;;;;;;;;;;14.60;99.90;;;;;;5075241;28;19916;-76
2021/05/28 05:42:37;;;;;;;;;;;14.60;99.90;;;;;;5075803;28;19962;-76
2021/05/28 05:45:03;;;;;;;;;;;14.80;99.90;;;;;;5057995;28;19912;-75
2021/05/28 05:47:29;;;;;;;;;;;14.60;99.90;;;;;;5076027;28;20253;-77
2021/05/28 05:49:55;;;;;;;;;;;14.70;99.90;;;;;;5058206;28;19909;-77
2021/05/28 05:52:21;;;;;;;;;;;14.90;99.90;;;;;;5075533;28;19949;-74
2021/05/28 05:54:47;;;;;;;;;;;15.10;99.90;;;;;;5075615;28;19958;-76
2021/05/28 05:57:13;;;;;;;;;;;15.10;99.90;;;;;;5075876;28;19958;-77
2021/05/28 05:59:38;;;;;;;;;;;15.10;99.90;;;;;;5075721;28;19909;-76
2021/05/28 06:02:04;;;;;;;;;;;15.00;99.90;;;;;;5075596;28;19909;-75
2021/05/28 06:04:30;;;;;;;;;;;14.70;99.90;;;;;;5075763;28;20338;-77
2021/05/28 06:06:55;;;;;;;;;;;14.70;99.90;;;;;;5076011;28;19904;-76
2021/05/28 06:09:21;;;;;;;;;;;14.90;99.90;;;;;;5058234;28;20296;-75
2021/05/28 06:11:47;;;;;;;;;;;14.80;99.90;;;;;;5072622;28;19915;-76
2021/05/28 06:14:12;;;;;;;;;;;14.90;99.90;;;;;;5064053;28;19915;-76
2021/05/28 06:16:38;;;;;;;;;;;15.20;99.90;;;;;;5065632;28;19911;-75
2021/05/28 06:19:04;;;;;;;;;;;15.20;99.90;;;;;;5064042;28;19912;-74
2021/05/28 06:21:32;;;;;;;;;;;15.40;99.90;;;;;;5063943;28;20380;-81
2021/05/28 06:23:58;;;;;;;;;;;15.30;99.90;;;;;;5053876;28;19904;-76
2021/05/28 06:26:24;;;;;;;;;;;14.90;99.90;;;;;;5074877;28;19912;-76
2021/05/28 06:28:50;;;;;;;;;;;15.20;99.90;;;;;;5074835;28;20003;-76
2021/05/28 06:31:16;;;;;;;;;;;15.20;99.90;;;;;;5075064;28;19905;-75
2021/05/28 06:33:41;;;;;;;;;;;15.30;99.90;;;;;;5058462;28;19904;-77
2021/05/28 06:36:07;;;;;;;;;;;14.90;99.90;;;;;;5056627;28;19905;-77
2021/05/28 06:38:33;;;;;;;;;;;14.90;99.90;;;;;;5075873;28;19919;-76
2021/05/28 06:40:59;;;;;;;;;;;14.90;99.90;;;;;;5057294;28;19905;-77
2021/05/28 06:43:25;;;;;;;;;;;15.10;99.90;;;;;;5070037;28;19908;-73
2021/05/28 06:45:51;;;;;;;;;;;15.20;99.90;;;;;;5065630;28;19905;-76
2021/05/28 06:48:17;;;;;;;;;;;15.10;99.90;;;;;;5064311;28;20017;-76
2021/05/28 06:50:44;;;;;;;;;;;15.10;99.90;;;;;;5045733;28;19950;-76
2021/05/28 06:53:10;;;;;;;;;;;15.20;99.90;;;;;;5048812;28;19917;-76
2021/05/28 06:55:37;;;;;;;;;;;15.10;99.90;;;;;;5034910;28;19913;-76
2021/05/28 06:58:02;;;;;;;;;;;14.70;99.90;;;;;;5045766;28;19913;-75
2021/05/28 07:00:28;;;;;;;;;;;14.80;99.90;;;;;;5044822;28;19905;-77
2021/05/28 07:02:55;;;;;;;;;;;14.70;99.90;;;;;;5034968;28;20335;-75
2021/05/28 07:05:24;;;;;;;;;;;14.60;99.90;;;;;;5033520;28;19948;-78
2021/05/28 07:07:50;;;;;;;;;;;14.60;99.90;;;;;;5041851;28;19904;-75
2021/05/28 07:10:16;;;;;;;;;;;14.40;99.90;;;;;;5075994;28;19911;-76
2021/05/28 07:12:42;;;;;;;;;;;14.20;99.90;;;;;;5072488;28;20366;-77
2021/05/28 07:15:08;;;;;;;;;;;14.50;99.90;;;;;;5074422;28;20347;-76
2021/05/28 07:17:34;;;;;;;;;;;14.40;99.90;;;;;;5074765;28;19909;-75
2021/05/28 07:20:00;;;;;;;;;;;14.50;99.90;;;;;;5074102;28;19919;-79
2021/05/28 07:22:25;;;;;;;;;;;14.40;99.90;;;;;;5074602;28;20405;-74
2021/05/28 07:24:51;;;;;;;;;;;14.40;99.90;;;;;;5074760;28;19912;-77
2021/05/28 07:27:17;;;;;;;;;;;14.30;99.90;;;;;;5073491;28;19950;-77
2021/05/28 07:29:43;;;;;;;;;;;14.50;99.90;;;;;;5075109;28;19915;-74
2021/05/28 07:32:09;;;;;;;;;;;14.70;99.90;;;;;;5076042;28;19937;-77
2021/05/28 07:34:36;;;;;;;;;;;14.50;99.90;;;;;;5076264;28;20290;-76
2021/05/28 07:37:03;;;;;;;;;;;14.50;99.90;;;;;;5074871;28;19943;-76
2021/05/28 07:39:29;;;;;;;;;;;14.40;99.90;;;;;;5071751;28;19916;-76
2021/05/28 07:41:55;;;;;;;;;;;14.40;99.90;;;;;;5041048;28;20272;-75
2021/05/28 07:44:21;;;;;;;;;;;14.50;99.90;;;;;;5043744;28;19905;-74
2021/05/28 07:46:48;;;;;;;;;;;14.50;99.90;;;;;;5044812;28;19904;-76
2021/05/28 07:49:14;;;;;;;;;;;14.60;99.90;;;;;;5051248;28;20422;-75
2021/05/28 07:51:40;;;;;;;;;;;14.70;99.90;;;;;;5065963;28;20350;-75
2021/05/28 07:54:06;;;;;;;;;;;14.90;99.90;;;;;;5067065;28;19947;-76
2021/05/28 07:56:34;;;;;;;;;;;14.60;99.90;;;;;;5068172;28;20281;-78
2021/05/28 07:59:00;;;;;;;;;;;14.90;99.90;;;;;;5073350;28;19919;-74
2021/05/28 08:01:29;;;;;;;;;;;15.00;99.90;;;;;;5057697;28;19952;-76
2021/05/28 08:03:56;;;;;;;;;;;15.00;99.90;;;;;;5057720;28;19908;-76
2021/05/28 08:06:22;;;;;;;;;;;15.10;99.90;;;;;;5039623;28;19911;-75
2021/05/28 08:08:48;;;;;;;;;;;15.30;99.90;;;;;;5057930;28;19943;-78
2021/05/28 08:11:14;;;;;;;;;;;15.30;99.90;;;;;;5039530;28;19908;-75
2021/05/28 08:13:39;;;;;;;;;;;15.30;99.90;;;;;;5057807;28;20325;-76
2021/05/28 08:16:05;;;;;;;;;;;15.20;99.90;;;;;;5057408;28;19904;-76
2021/05/28 08:18:31;;;;;;;;;;;15.20;99.90;;;;;;5057388;28;19931;-76
2021/05/28 08:20:57;;;;;;;;;;;15.40;99.90;;;;;;5057372;28;19909;-75
2021/05/28 08:23:23;;;;;;;;;;;15.60;99.90;;;;;;5059055;28;19935;-76
2021/05/28 08:25:49;;;;;;;;;;;15.50;99.90;;;;;;5040006;28;19999;-78
2021/05/28 08:28:18;;;;;;;;;;;15.70;99.90;;;;;;5057677;28;19904;-77
2021/05/28 08:30:44;;;;;;;;;;;15.70;99.90;;;;;;5058322;28;19904;-75
2021/05/28 08:33:13;;;;;;;;;;;15.80;99.90;;;;;;5039853;28;19912;-80
2021/05/28 08:35:40;;;;;;;;;;;15.70;99.90;;;;;;5040267;28;19912;-77
2021/05/28 08:38:06;;;;;;;;;;;15.90;99.90;;;;;;5058224;28;19912;-77
2021/05/28 08:40:34;;;;;;;;;;;15.90;99.90;;;;;;5056832;28;19908;-78
2021/05/28 08:43:02;;;;;;;;;;;16.00;99.90;;;;;;5039040;28;19905;-75
2021/05/28 08:45:44;;;;;;;;;;;16.10;99.90;;;;;;5056560;28;19908;-78
2021/05/28 08:48:12;;;;;;;;;;;16.00;99.90;;;;;;5038787;28;19912;-74
2021/05/28 08:50:39;;;;;;;;;;;16.20;99.90;;;;;;5056299;28;19924;-74
2021/05/28 08:53:06;;;;;;;;;;;16.30;99.90;;;;;;5056572;28;20278;-75
2021/05/28 08:55:32;;;;;;;;;;;16.30;99.90;;;;;;5056662;28;20343;-76
2021/05/28 08:57:58;;;;;;;;;;;16.40;99.90;;;;;;5038732;28;19931;-74
2021/05/28 09:00:26;;;;;;;;;;;16.30;99.90;;;;;;5055737;28;19909;-74
2021/05/28 09:02:52;;;;;;;;;;;16.20;99.90;;;;;;5056366;28;19904;-73
2021/05/28 09:05:21;;;;;;;;;;;16.40;99.90;;;;;;5038436;28;19912;-74
2021/05/28 09:07:59;;;;;;;;;;;16.40;99.90;;;;;;5056657;28;20333;-78
2021/05/28 09:10:25;;;;;;;;;;;16.50;99.90;;;;;;5056702;28;20003;-79
2021/05/28 09:12:51;;;;;;;;;;;16.60;99.90;;;;;;5039839;28;19939;-78
2021/05/28 09:15:21;;;;;;;;;;;16.60;99.90;;;;;;5057352;28;19912;-76
2021/05/28 09:17:49;;;;;;;;;;;16.90;99.90;;;;;;5056530;28;19915;-78
2021/05/28 09:20:17;;;;;;;;;;;16.90;99.90;;;;;;5056447;28;19920;-78
2021/05/28 09:22:43;;;;;;;;;;;17.00;99.90;;;;;;5038120;28;19963;-77
2021/05/28 09:25:09;;;;;;;;;;;17.00;99.90;;;;;;5056175;28;19936;-77
2021/05/28 09:27:37;;;;;;;;;;;17.00;99.90;;;;;;5055902;28;20432;-75
2021/05/28 09:30:17;;;;;;;;;;;17.10;99.60;;;;;;5055775;28;19954;-75
2021/05/28 09:32:48;;;;;;;;;;;17.10;99.40;;;;;;5038103;28;20366;-77
2021/05/28 09:35:16;;;;;;;;;;;17.30;99.40;;;;;;5056286;28;19911;-74
2021/05/28 09:37:49;;;;;;;;;;;17.20;99.50;;;;;;5055999;28;19927;-76
2021/05/28 09:40:19;;;;;;;;;;;17.50;99.10;;;;;;5055979;28;19985;-76
2021/05/28 09:42:55;;;;;;;;;;;17.60;99.00;;;;;;5058149;28;20358;-79
2021/05/28 09:45:24;;;;;;;;;;;17.80;99.20;;;;;;5040720;28;19991;-78
2021/05/28 09:47:51;;;;;;;;;;;18.00;98.60;;;;;;5057380;28;19958;-76
2021/05/28 09:50:17;;;;;;;;;;;17.90;98.00;;;;;;5056356;28;19916;-76
2021/05/28 09:52:43;;;;;;;;;;;17.80;97.80;;;;;;5056769;28;19915;-75
2021/05/28 09:55:10;;;;;;;;;;;17.70;97.60;;;;;;5056871;28;20334;-77
2021/05/28 09:57:43;;;;;;;;;;;17.70;97.30;;;;;;5057678;28;20003;-76
2021/05/28 10:00:20;;;;;;;;;;;17.80;97.40;;;;;;5038812;28;20270;-78
2021/05/28 10:02:46;;;;;;;;;;;18.10;98.00;;;;;;5058655;28;19908;-76
2021/05/28 10:05:20;;;;;;;;;;;18.30;97.20;;;;;;5057831;28;19905;-77
2021/05/28 10:07:46;;;;;;;;;;;18.30;96.20;;;;;;5057592;28;19905;-77
2021/05/28 10:10:12;;;;;;;;;;;18.50;95.80;;;;;;5057347;28;20339;-75
2021/05/28 10:12:41;;;;;;;;;;;18.40;95.10;;;;;;5037810;28;20294;-76
2021/05/28 10:15:07;;;;;;;;;;;18.70;95.10;;;;;;5038337;28;19928;-76
2021/05/28 10:17:33;;;;;;;;;;;18.80;95.30;;;;;;5039987;28;20271;-77
2021/05/28 10:19:59;;;;;;;;;;;19.00;95.40;;;;;;5038141;28;19935;-78
2021/05/28 10:22:27;;;;;;;;;;;19.50;94.90;;;;;;5056866;28;20239;-77
2021/05/28 10:24:52;;;;;;;;;;;19.80;93.30;;;;;;5056958;28;19911;-75
2021/05/28 10:27:19;;;;;;;;;;;19.90;95.00;;;;;;5055140;28;19999;-76
2021/05/28 10:29:48;;;;;;;;;;;19.80;93.40;;;;;;5054886;28;19905;-75
2021/05/28 10:32:14;;;;;;;;;;;19.90;92.50;;;;;;5055294;28;19999;-74
2021/05/28 10:34:58;;;;;;;;;;;19.80;92.50;;;;;;5037449;28;19936;-75
2021/05/28 10:37:27;;;;;;;;;;;20.10;92.90;;;;;;5037534;28;19914;-73
2021/05/28 10:39:53;;;;;;;;;;;20.20;92.50;;;;;;5055764;28;20523;-74
2021/05/28 10:42:19;;;;;;;;;;;19.90;93.10;;;;;;5055317;28;19904;-76
2021/05/28 10:44:45;;;;;;;;;;;20.10;92.60;;;;;;5054907;28;19926;-74
2021/05/28 10:47:14;;;;;;;;;;;20.30;92.20;;;;;;5055568;28;19905;-75
2021/05/28 10:49:44;;;;;;;;;;;20.70;91.80;;;;;;5055173;28;19904;-75
2021/05/28 10:52:13;;;;;;;;;;;20.90;92.00;;;;;;5037027;28;19940;-75
2021/05/28 10:54:43;;;;;;;;;;;21.70;91.90;;;;;;5056114;28;19904;-73
2021/05/28 10:57:18;;;;;;;;;;;21.20;91.30;;;;;;5055211;28;20023;-74
2021/05/28 10:59:48;;;;;;;;;;;21.40;90.50;;;;;;5037165;28;19913;-73
2021/05/28 11:02:16;;;;;;;;;;;21.50;90.30;;;;;;5056146;28;20356;-75
2021/05/28 11:04:42;;;;;;;;;;;21.50;89.00;;;;;;5055234;28;19931;-73
2021/05/28 11:07:07;;;;;;;;;;;21.80;90.50;;;;;;5054991;28;20309;-76
2021/05/28 11:09:40;;;;;;;;;;;22.30;89.90;;;;;;5037539;28;19913;-77
2021/05/28 11:12:07;;;;;;;;;;;22.10;88.20;;;;;;5057690;28;19943;-77
2021/05/28 11:14:36;;;;;;;;;;;22.10;87.00;;;;;;5057667;28;19912;-75
2021/05/28 11:17:01;;;;;;;;;;;22.30;86.80;;;;;;5037430;28;19908;-75
2021/05/28 11:19:30;;;;;;;;;;;22.40;85.80;;;;;;5053523;28;20004;-78
2021/05/28 11:21:57;;;;;;;;;;;22.20;85.60;;;;;;5036986;28;19944;-77
2021/05/28 11:24:42;;;;;;;;;;;22.20;85.50;;;;;;5057583;28;19905;-79
2021/05/28 11:27:19;;;;;;;;;;;22.60;85.60;;;;;;5056456;28;20350;-75
2021/05/28 11:29:45;;;;;;;;;;;23.00;85.70;;;;;;5056679;28;20236;-74
2021/05/28 11:32:30;;;;;;;;;;;22.80;84.90;;;;;;5056188;28;19911;-76
2021/05/28 11:35:08;;;;;;;;;;;23.00;83.60;;;;;;5042367;28;20271;-78
2021/05/28 11:37:59;;;;;;;;;;;23.20;83.00;;;;;;5058429;28;20403;-77
2021/05/28 11:40:29;;;;;;;;;;;22.40;83.40;;;;;;5032012;28;20351;-76
2021/05/28 11:43:08;;;;;;;;;;;22.90;84.00;;;;;;5057219;28;19905;-78
2021/05/28 11:45:35;;;;;;;;;;;22.80;81.60;;;;;;5057872;28;19916;-76
2021/05/28 11:48:01;;;;;;;;;;;23.10;84.60;;;;;;5038561;28;19913;-77
2021/05/28 11:50:39;;;;;;;;;;;22.90;82.40;;;;;;5055656;28;19923;-77
2021/05/28 11:53:06;;;;;;;;;;;22.80;80.70;;;;;;5057181;28;19912;-73
2021/05/28 11:55:32;;;;;;;;;;;22.60;82.00;;;;;;5037714;28;19911;-76
2021/05/28 11:57:59;;;;;;;;;;;22.60;84.70;;;;;;5056414;28;19935;-77
2021/05/28 12:00:26;;;;;;;;;;;22.60;84.50;;;;;;5055516;28;20263;-76
2021/05/28 12:02:56;;;;;;;;;;;23.10;80.70;;;;;;5056521;28;19912;-78
2021/05/28 12:05:22;;;;;;;;;;;23.30;81.20;;;;;;5055972;28;20273;-77
2021/05/28 12:07:48;;;;;;;;;;;23.30;80.00;;;;;;5056943;28;20265;-78
2021/05/28 12:10:15;;;;;;;;;;;23.20;80.60;;;;;;5057410;28;19912;-77
2021/05/28 12:12:54;;;;;;;;;;;23.10;78.40;;;;;;5057581;28;20390;-79
2021/05/28 12:15:22;;;;;;;;;;;23.50;79.70;;;;;;5056415;28;20421;-76
2021/05/28 12:17:48;;;;;;;;;;;23.70;77.90;;;;;;5057062;28;19905;-79
2021/05/28 12:20:19;;;;;;;;;;;23.50;79.50;;;;;;5057563;28;19916;-77
2021/05/28 12:22:59;;;;;;;;;;;23.60;76.80;;;;;;5055402;28;20020;-76
2021/05/28 12:25:24;;;;;;;;;;;23.60;77.10;;;;;;5038538;28;20381;-74
2021/05/28 12:27:50;;;;;;;;;;;23.40;77.80;;;;;;5056173;28;20342;-76
2021/05/28 12:30:22;;;;;;;;;;;23.00;77.70;;;;;;5056963;28;19904;-75
2021/05/28 12:32:48;;;;;;;;;;;22.50;79.50;;;;;;5038342;28;20308;-78
2021/05/28 12:35:14;;;;;;;;;;;22.20;79.30;;;;;;5056792;28;19916;-76
2021/05/28 12:38:00;;;;;;;;;;;22.10;81.20;;;;;;5040838;28;19905;-79
2021/05/28 12:40:26;;;;;;;;;;;21.80;79.70;;;;;;5059683;28;19908;-79
2021/05/28 12:42:56;;;;;;;;;;;22.00;79.90;;;;;;5060117;28;19909;-78
2021/05/28 12:45:31;;;;;;;;;;;21.80;80.00;;;;;;5059535;28;19904;-77
2021/05/28 12:47:56;;;;;;;;;;;21.70;81.70;;;;;;5061492;28;19951;-76
2021/05/28 12:50:33;;;;;;;;;;;21.70;80.60;;;;;;5059442;28;19917;-77
2021/05/28 12:53:00;;;;;;;;;;;21.20;79.70;;;;;;5046061;28;19905;-75
2021/05/28 12:55:29;;;;;;;;;;;21.70;80.50;;;;;;5043406;28;19912;-78
2021/05/28 12:57:55;;;;;;;;;;;21.80;79.90;;;;;;5061092;28;19904;-76
2021/05/28 13:00:38;;;;;;;;;;;22.20;78.10;;;;;;5059795;28;20057;-76
2021/05/28 13:03:04;;;;;;;;;;;22.30;76.40;;;;;;5058953;28;19913;-75
2021/05/28 13:05:33;;;;;;;;;;;22.50;74.90;;;;;;5057129;28;19912;-75
2021/05/28 13:08:00;;;;;;;;;;;22.90;74.60;;;;;;5039607;28;20363;-74
2021/05/28 13:10:27;;;;;;;;;;;23.20;75.70;;;;;;5063534;28;19959;-74
2021/05/28 13:12:54;;;;;;;;;;;23.30;74.70;;;;;;5075926;28;19912;-75
2021/05/28 13:15:21;;;;;;;;;;;23.30;68.30;;;;;;5076428;28;19966;-77
2021/05/28 13:17:57;;;;;;;;;;;23.10;71.00;;;;;;5078237;28;19920;-74
2021/05/28 13:20:25;;;;;;;;;;;23.30;72.20;;;;;;5077819;28;19913;-77
2021/05/28 13:22:52;;;;;;;;;;;23.00;69.60;;;;;;5079333;28;19908;-76
2021/05/28 13:25:25;;;;;;;;;;;22.60;70.20;;;;;;5080284;28;20376;-76
2021/05/28 13:28:10;;;;;;;;;;;22.50;69.00;;;;;;5077240;28;19904;-75
2021/05/28 13:30:40;;;;;;;;;;;22.40;71.30;;;;;;5076809;28;19909;-78
2021/05/28 13:33:17;;;;;;;;;;;22.50;70.20;;;;;;5076056;28;19905;-76
2021/05/28 13:35:44;;;;;;;;;;;22.40;68.90;;;;;;5076477;28;19908;-76
2021/05/28 13:38:10;;;;;;;;;;;22.90;72.40;;;;;;5075607;28;19904;-75
2021/05/28 13:40:36;;;;;;;;;;;23.20;69.90;;;;;;5075807;28;19909;-75
2021/05/28 13:43:02;;;;;;;;;;;23.50;68.40;;;;;;5074384;28;19905;-76
2021/05/28 13:45:28;;;;;;;;;;;23.50;69.50;;;;;;5076815;28;19912;-75
2021/05/28 13:47:54;;;;;;;;;;;23.50;68.50;;;;;;5076838;28;19915;-77
2021/05/28 13:50:22;;;;;;;;;;;23.60;66.10;;;;;;5076256;28;19952;-74
2021/05/28 13:52:48;;;;;;;;;;;23.80;67.50;;;;;;5085103;28;19904;-74
2021/05/28 13:55:14;;;;;;;;;;;23.80;68.50;;;;;;5078111;28;19915;-76
2021/05/28 13:57:40;;;;;;;;;;;24.30;69.70;;;;;;5075641;28;19947;-77
2021/05/28 14:00:08;;;;;;;;;;;24.10;68.40;;;;;;5077355;28;19912;-77
2021/05/28 14:02:34;;;;;;;;;;;23.90;64.30;;;;;;5077867;28;19908;-75
2021/05/28 14:04:59;;;;;;;;;;;23.90;64.40;;;;;;5076261;28;19957;-74
2021/05/28 14:07:25;;;;;;;;;;;23.80;65.50;;;;;;5077651;28;19904;-75
2021/05/28 14:09:51;;;;;;;;;;;23.80;66.90;;;;;;5075698;28;19905;-77
2021/05/28 14:12:17;;;;;;;;;;;23.70;66.10;;;;;;5078774;28;19912;-76
2021/05/28 14:14:42;;;;;;;;;;;23.50;65.60;;;;;;5078569;28;19904;-78
2021/05/28 14:17:08;;;;;;;;;;;23.10;66.20;;;;;;5078441;28;19995;-76
2021/05/28 14:19:34;;;;;;;;;;;22.90;67.20;;;;;;5076032;28;19912;-75
2021/05/28 14:22:00;;;;;;;;;;;23.00;64.40;;;;;;5077566;28;19962;-78